Time;durP1;ratioP1;P1;durP2;ratioP2;P2;SDS_P1;SDS_P2;PMS_P1;PMS_P2;Temp;Humidity;BMP_temperature;BMP_pressure;BME280_temperature;BME280_humidity;BME280_pressure;Samples;Min_cycle;Max_cycle;Signal;HPM_P1;HPM_P2
2023/12/21 00:03:43;;;;;;;5.00;2.60;;;;;;;6.49;62.09;98129.58;231328;206;138826;-57
2023/12/21 00:08:46;;;;;;;5.80;2.80;;;;;;;6.42;62.22;98123.34;231775;203;137829;-57
2023/12/21 00:13:50;;;;;;;5.70;2.60;;;;;;;6.39;62.31;98120.84;231702;198;153327;-56
2023/12/21 00:18:53;;;;;;;6.30;2.60;;;;;;;6.38;62.44;98108.05;231757;198;137982;-56
2023/12/21 00:23:56;;;;;;;4.80;2.10;;;;;;;6.36;62.42;98098.66;231844;198;138310;-56
2023/12/21 00:29:00;;;;;;;5.60;2.40;;;;;;;6.31;62.58;98099.16;231719;198;153334;-57
2023/12/21 00:34:03;;;;;;;5.40;2.30;;;;;;;6.25;62.67;98094.23;231738;205;138589;-57
2023/12/21 00:39:06;;;;;;;4.10;2.20;;;;;;;6.29;62.61;98094.67;231733;198;137577;-58
2023/12/21 00:44:10;;;;;;;5.10;2.30;;;;;;;6.33;62.52;98084.77;231729;199;152913;-58
2023/12/21 00:49:13;;;;;;;4.50;2.30;;;;;;;6.35;62.33;98083.57;231670;202;138310;-58
2023/12/21 00:54:16;;;;;;;5.00;2.20;;;;;;;6.34;62.48;98081.34;231715;198;137955;-57
2023/12/21 00:59:19;;;;;;;4.20;2.10;;;;;;;6.31;62.51;98082.40;231799;198;153240;-56
2023/12/21 01:04:24;;;;;;;3.60;2.10;;;;;;;6.30;62.55;98082.44;231866;206;137665;-57
2023/12/21 01:09:27;;;;;;;3.40;1.80;;;;;;;6.30;62.47;98079.48;231850;198;137426;-57
2023/12/21 01:14:31;;;;;;;5.70;2.10;;;;;;;6.29;62.71;98077.41;231831;198;154244;-56
2023/12/21 01:19:34;;;;;;;3.20;1.60;;;;;;;6.31;62.55;98074.27;231703;198;138650;-55
2023/12/21 01:24:39;;;;;;;6.80;1.70;;;;;;;6.35;62.55;98074.73;231640;198;138676;-55
2023/12/21 01:29:42;;;;;;;3.10;1.60;;;;;;;6.37;62.57;98067.91;231609;200;154351;-55
2023/12/21 01:34:46;;;;;;;3.10;1.40;;;;;;;6.39;62.57;98059.55;231814;198;138132;-57
2023/12/21 01:39:49;;;;;;;2.70;1.20;;;;;;;6.43;62.50;98052.26;231878;199;137474;-55
2023/12/21 01:44:53;;;;;;;2.60;1.50;;;;;;;6.46;62.41;98047.83;231717;198;154803;-56
2023/12/21 01:49:56;;;;;;;2.00;1.10;;;;;;;6.48;62.24;98036.77;231723;198;139303;-58
2023/12/21 01:55:00;;;;;;;1.40;0.90;;;;;;;6.50;62.31;98031.41;231785;198;137332;-58
2023/12/21 02:00:03;;;;;;;2.60;1.40;;;;;;;6.50;62.33;98037.55;231767;198;154012;-55
2023/12/21 02:05:07;;;;;;;1.90;1.30;;;;;;;6.51;62.48;98029.59;231733;199;137557;-55
2023/12/21 02:10:10;;;;;;;2.80;1.10;;;;;;;6.57;62.32;98022.52;231847;206;138577;-61
2023/12/21 02:15:14;;;;;;;2.20;1.00;;;;;;;6.62;62.20;98015.47;231728;203;153357;-57
2023/12/21 02:20:18;;;;;;;3.70;1.30;;;;;;;6.65;62.08;98013.36;231624;199;137959;-57
2023/12/21 02:25:21;;;;;;;2.20;1.20;;;;;;;6.67;61.97;98001.08;231743;199;137208;-56
2023/12/21 02:30:24;;;;;;;2.00;1.00;;;;;;;6.70;62.00;97991.58;231723;198;153363;-56
2023/12/21 02:35:27;;;;;;;1.90;1.00;;;;;;;6.73;62.20;97980.57;231774;198;138081;-55
2023/12/21 02:40:30;;;;;;;1.40;1.00;;;;;;;6.74;62.53;97971.86;231837;202;139404;-62
2023/12/21 02:45:33;;;;;;;3.30;1.10;;;;;;;6.76;62.55;97962.98;231657;198;154025;-55
2023/12/21 02:50:36;;;;;;;3.50;1.40;;;;;;;6.79;62.67;97956.79;231631;205;137969;-58
2023/12/21 02:55:39;;;;;;;3.30;1.40;;;;;;;6.82;63.13;97957.64;231825;198;137166;-57
2023/12/21 03:00:43;;;;;;;3.40;1.10;;;;;;;6.81;63.53;97947.45;231752;198;153175;-55
2023/12/21 03:05:46;;;;;;;2.40;1.10;;;;;;;6.80;64.03;97942.39;231734;203;137787;-57
2023/12/21 03:10:49;;;;;;;1.40;1.00;;;;;;;6.80;64.39;97930.94;231783;205;138106;-56
2023/12/21 03:15:52;;;;;;;2.00;1.20;;;;;;;6.81;64.72;97920.16;231886;203;153125;-56
2023/12/21 03:20:57;;;;;;;1.40;0.80;;;;;;;6.76;64.83;97907.41;231775;205;138088;-59
2023/12/21 03:26:00;;;;;;;1.70;1.10;;;;;;;6.73;65.00;97892.80;231743;203;137231;-56
2023/12/21 03:31:08;;;;;;;1.40;0.80;;;;;;;6.74;65.11;97878.30;231735;202;153884;-57
2023/12/21 03:36:14;;;;;;;1.50;0.70;;;;;;;6.81;65.27;97870.62;231675;202;138217;-56
2023/12/21 03:41:17;;;;;;;1.50;0.70;;;;;;;6.90;64.87;97858.04;231755;202;138515;-55
2023/12/21 03:46:21;;;;;;;1.70;0.80;;;;;;;6.95;64.48;97847.67;231863;198;153376;-56
2023/12/21 03:51:24;;;;;;;1.20;0.80;;;;;;;6.94;64.49;97834.70;231479;202;139392;-54
2023/12/21 03:56:27;;;;;;;1.80;0.80;;;;;;;6.87;64.53;97821.20;231747;203;137299;-55
2023/12/21 04:01:31;;;;;;;1.40;0.90;;;;;;;6.80;64.66;97811.08;231714;198;154630;-56
2023/12/21 04:06:34;;;;;;;1.20;0.90;;;;;;;6.77;64.62;97801.05;231691;202;136923;-55
2023/12/21 04:11:37;;;;;;;1.40;0.80;;;;;;;6.71;64.54;97797.11;231786;198;138366;-54
2023/12/21 04:16:41;;;;;;;2.20;0.90;;;;;;;6.64;64.50;97792.09;231548;198;153133;-54
2023/12/21 04:21:44;;;;;;;2.10;1.00;;;;;;;6.62;64.54;97783.41;231782;198;137550;-53
2023/12/21 04:26:47;;;;;;;1.10;0.80;;;;;;;6.59;64.65;97772.99;231788;198;141111;-56
2023/12/21 04:31:51;;;;;;;1.40;0.80;;;;;;;6.61;64.16;97757.88;231753;206;153188;-54
2023/12/21 04:36:54;;;;;;;1.90;0.90;;;;;;;6.56;64.09;97748.20;231692;198;137720;-56
2023/12/21 04:41:57;;;;;;;66.80;50.70;;;;;;;6.52;64.38;97746.52;231783;198;137456;-56
2023/12/21 04:47:02;;;;;;;74.10;41.50;;;;;;;6.55;64.16;97744.52;231776;206;154820;-56
2023/12/21 04:52:05;;;;;;;5.40;3.30;;;;;;;6.56;63.85;97740.25;231837;198;138534;-55
2023/12/21 04:57:08;;;;;;;1.80;0.90;;;;;;;6.58;63.41;97740.48;231770;206;137444;-57
2023/12/21 05:02:11;;;;;;;1.40;0.70;;;;;;;6.52;63.28;97727.67;231732;198;153108;-58
2023/12/21 05:07:15;;;;;;;1.10;0.70;;;;;;;6.53;63.12;97717.91;231774;198;137452;-55
2023/12/21 05:12:18;;;;;;;3.60;0.80;;;;;;;6.50;62.88;97701.21;231684;203;142610;-56
2023/12/21 05:17:23;;;;;;;48.60;35.40;;;;;;;6.52;62.81;97689.45;231679;205;154678;-57
2023/12/21 05:22:26;;;;;;;4.90;3.10;;;;;;;6.61;62.88;97688.09;231835;198;137981;-57
2023/12/21 05:27:29;;;;;;;4.40;1.40;;;;;;;6.68;62.22;97676.02;231540;199;142231;-56
2023/12/21 05:32:33;;;;;;;4.30;0.80;;;;;;;6.65;61.93;97665.49;231600;198;153944;-56
2023/12/21 05:37:36;;;;;;;1.20;0.90;;;;;;;6.67;61.91;97658.48;231652;206;141530;-57
2023/12/21 05:42:39;;;;;;;6.10;0.80;;;;;;;6.68;61.62;97651.89;231703;199;137349;-57
2023/12/21 05:47:42;;;;;;;1.20;0.70;;;;;;;6.67;61.52;97641.20;231664;199;152987;-56
2023/12/21 05:52:46;;;;;;;1.90;0.80;;;;;;;6.65;61.45;97629.85;231679;199;138242;-56
2023/12/21 05:57:49;;;;;;;2.30;0.80;;;;;;;6.66;61.46;97630.54;231819;198;137943;-56
2023/12/21 06:02:52;;;;;;;1.60;0.90;;;;;;;6.69;61.59;97623.77;231712;199;153932;-56
2023/12/21 06:07:56;;;;;;;1.10;0.90;;;;;;;6.72;61.49;97620.55;231740;199;139257;-59
2023/12/21 06:12:59;;;;;;;1.70;0.90;;;;;;;6.75;61.25;97622.31;231665;198;137418;-55
2023/12/21 06:18:03;;;;;;;1.50;1.00;;;;;;;6.76;61.41;97616.21;231484;206;154310;-57
2023/12/21 06:23:06;;;;;;;0.90;0.80;;;;;;;6.78;61.63;97609.05;231714;200;141646;-56
2023/12/21 06:28:09;;;;;;;1.10;0.90;;;;;;;6.73;62.13;97608.69;231827;200;137714;-57
2023/12/21 06:33:12;;;;;;;1.70;0.80;;;;;;;6.69;62.70;97605.64;231724;198;153960;-56
2023/12/21 06:38:16;;;;;;;1.20;0.90;;;;;;;6.68;63.12;97609.59;231701;198;137702;-56
2023/12/21 06:43:19;;;;;;;1.10;0.80;;;;;;;6.66;63.97;97606.00;231729;198;139305;-57
2023/12/21 06:48:22;;;;;;;1.70;0.70;;;;;;;6.59;64.39;97598.73;231696;206;153231;-55
2023/12/21 06:53:26;;;;;;;1.10;0.70;;;;;;;6.54;65.02;97596.59;231735;203;137923;-56
2023/12/21 06:58:29;;;;;;;1.20;0.70;;;;;;;6.56;65.43;97600.88;231806;198;137879;-55
2023/12/21 07:03:32;;;;;;;0.90;0.70;;;;;;;6.58;65.25;97595.13;231708;199;153987;-58
2023/12/21 07:08:35;;;;;;;0.80;0.60;;;;;;;6.58;65.51;97594.91;231733;198;138353;-57
2023/12/21 07:13:39;;;;;;;1.60;0.80;;;;;;;6.60;65.73;97592.69;231754;199;137502;-57
2023/12/21 07:18:42;;;;;;;1.20;0.80;;;;;;;6.58;65.82;97599.31;231669;206;153335;-58
2023/12/21 07:23:45;;;;;;;1.60;0.70;;;;;;;6.58;66.11;97598.81;231782;205;137553;-58
2023/12/21 07:28:49;;;;;;;2.10;0.90;;;;;;;6.51;66.38;97591.52;231708;202;143160;-58
2023/12/21 07:33:52;;;;;;;2.80;0.80;;;;;;;6.47;66.62;97586.20;231869;199;153894;-58
2023/12/21 07:38:55;;;;;;;2.30;0.70;;;;;;;6.48;66.76;97581.88;231721;198;137372;-55
2023/12/21 07:43:59;;;;;;;2.00;0.90;;;;;;;6.55;66.87;97584.90;231769;199;139283;-57
2023/12/21 07:49:03;;;;;;;6.80;1.10;;;;;;;6.69;67.03;97582.38;231707;198;153549;-58
2023/12/21 07:54:06;;;;;;;1.80;0.80;;;;;;;6.73;67.09;97583.83;231710;198;138571;-58
2023/12/21 07:59:10;;;;;;;1.60;0.90;;;;;;;6.74;67.20;97582.39;231562;198;138713;-57
2023/12/21 08:04:13;;;;;;;2.30;0.80;;;;;;;6.64;67.88;97580.40;231917;198;153126;-57
2023/12/21 08:09:16;;;;;;;1.10;1.00;;;;;;;6.60;68.43;97575.25;231632;199;138708;-56
2023/12/21 08:14:20;;;;;;;4.00;0.90;;;;;;;6.56;68.55;97575.13;231751;198;138995;-59
2023/12/21 08:19:23;;;;;;;1.00;0.50;;;;;;;6.52;68.94;97570.84;231689;198;153792;-57
2023/12/21 08:24:27;;;;;;;1.70;0.60;;;;;;;6.46;69.49;97561.24;231879;198;138833;-59
2023/12/21 08:29:30;;;;;;;1.00;0.60;;;;;;;6.36;69.93;97553.45;231765;198;137710;-57
2023/12/21 08:34:33;;;;;;;1.00;0.60;;;;;;;6.36;70.06;97547.34;231763;198;153525;-56
2023/12/21 08:39:39;;;;;;;2.60;0.90;;;;;;;6.31;70.38;97540.26;231609;198;138348;-57
2023/12/21 08:44:43;;;;;;;1.70;0.80;;;;;;;6.28;70.61;97540.48;231689;199;138631;-57
2023/12/21 08:49:46;;;;;;;9.90;5.80;;;;;;;6.20;70.93;97527.11;231631;202;154224;-55
2023/12/21 08:54:50;;;;;;;2.10;1.20;;;;;;;6.24;70.88;97521.88;231705;198;139891;-55
2023/12/21 08:59:53;;;;;;;1.80;1.00;;;;;;;6.28;71.05;97515.79;231603;198;137909;-56
2023/12/21 09:04:56;;;;;;;2.80;0.70;;;;;;;6.28;70.86;97492.91;231693;205;155212;-57
2023/12/21 09:10:00;;;;;;;4.50;0.80;;;;;;;6.29;71.28;97484.19;231813;199;137574;-57
2023/12/21 09:15:06;;;;;;;3.00;1.30;;;;;;;6.35;71.39;97468.12;231693;202;137376;-59
2023/12/21 09:20:10;;;;;;;1.60;0.80;;;;;;;6.44;71.45;97443.91;231661;202;153779;-57
2023/12/21 09:25:13;;;;;;;2.00;0.80;;;;;;;6.48;70.94;97425.98;231680;198;138112;-58
2023/12/21 09:30:19;;;;;;;1.50;0.80;;;;;;;6.58;70.40;97404.84;231662;199;138503;-57
2023/12/21 09:35:22;;;;;;;1.10;0.90;;;;;;;6.72;70.12;97378.05;231730;199;153428;-57
2023/12/21 09:40:26;;;;;;;1.60;0.90;;;;;;;6.81;69.33;97357.30;231729;202;137783;-58
2023/12/21 09:45:31;;;;;;;7.90;4.80;;;;;;;6.86;69.55;97338.76;231612;199;141572;-56
2023/12/21 09:50:34;;;;;;;2.80;1.50;;;;;;;6.93;69.07;97313.83;231707;198;153859;-54
2023/12/21 09:55:39;;;;;;;3.60;1.60;;;;;;;7.02;69.07;97295.81;231327;205;138663;-55
2023/12/21 10:00:43;;;;;;;2.00;1.20;;;;;;;7.09;68.39;97283.12;231656;198;138033;-56
2023/12/21 10:05:47;;;;;;;1.60;1.20;;;;;;;7.15;68.05;97270.19;231668;203;153440;-57
2023/12/21 10:10:50;;;;;;;1.30;1.00;;;;;;;7.22;67.48;97262.86;231659;200;137602;-57
2023/12/21 10:15:58;;;;;;;1.90;0.90;;;;;;;7.29;67.09;97261.33;231822;203;139919;-57
2023/12/21 10:21:02;;;;;;;2.80;1.00;;;;;;;7.39;66.45;97257.70;231544;200;154301;-55
2023/12/21 10:26:06;;;;;;;3.10;1.00;;;;;;;7.40;65.96;97244.73;231709;198;137248;-55
2023/12/21 10:31:10;;;;;;;3.60;1.10;;;;;;;7.37;65.72;97232.30;231740;202;137160;-57
2023/12/21 10:36:14;;;;;;;1.40;0.90;;;;;;;7.43;65.85;97209.28;231585;202;153642;-57
2023/12/21 10:41:18;;;;;;;2.90;1.00;;;;;;;7.46;65.30;97197.16;231704;198;137338;-54
2023/12/21 10:46:22;;;;;;;1.80;0.90;;;;;;;7.52;64.99;97187.01;231839;198;138235;-56
2023/12/21 10:51:29;;;;;;;2.80;1.00;;;;;;;7.53;64.47;97164.13;231561;206;154037;-55
2023/12/21 10:56:32;;;;;;;2.10;1.10;;;;;;;7.56;64.46;97142.87;231664;206;138183;-57
2023/12/21 11:01:37;;;;;;;1.60;1.00;;;;;;;7.74;64.23;97123.63;231636;199;137795;-57
2023/12/21 11:06:42;;;;;;;3.50;1.10;;;;;;;7.86;63.23;97107.33;231652;198;153780;-55
2023/12/21 11:11:46;;;;;;;1.80;0.90;;;;;;;7.90;63.05;97083.49;231689;202;138213;-55
2023/12/21 11:16:57;;;;;;;2.40;0.90;;;;;;;7.91;62.79;97078.13;231739;199;137680;-53
2023/12/21 11:22:01;;;;;;;1.50;1.00;;;;;;;7.91;62.36;97068.39;231889;202;154443;-56
2023/12/21 11:27:06;;;;;;;1.50;0.90;;;;;;;7.97;62.25;97049.52;231566;199;138398;-57
2023/12/21 11:32:09;;;;;;;1.70;1.10;;;;;;;8.04;61.64;97036.79;231734;198;138019;-54
2023/12/21 11:37:29;;;;;;;1.50;0.90;;;;;;;8.02;61.26;97018.02;231663;198;154006;-56
2023/12/21 11:42:36;;;;;;;2.40;1.10;;;;;;;8.04;61.17;96997.52;231750;198;137380;-55
2023/12/21 11:47:44;;;;;;;3.20;1.00;;;;;;;8.04;61.10;96986.57;231340;198;139480;-57
2023/12/21 11:52:51;;;;;;;2.00;1.00;;;;;;;8.08;61.06;96977.12;231837;198;154115;-57
2023/12/21 11:58:22;;;;;;;;;;;;;;;8.14;61.19;96968.26;231890;199;138173;-56
2023/12/21 12:03:27;;;;;;;1.40;0.80;;;;;;;8.21;60.88;96968.92;231806;202;138198;-57
2023/12/21 12:08:33;;;;;;;1.30;0.80;;;;;;;8.23;60.71;96949.45;231541;202;153586;-54
2023/12/21 12:13:37;;;;;;;1.80;0.70;;;;;;;8.25;60.66;96942.60;231732;202;137465;-56
2023/12/21 12:18:40;;;;;;;1.40;0.60;;;;;;;8.24;60.74;96929.57;231742;198;138935;-56
2023/12/21 12:23:47;;;;;;;1.30;0.80;;;;;;;8.26;60.62;96917.96;231714;204;153954;-58
2023/12/21 12:28:51;;;;;;;3.30;0.90;;;;;;;8.26;60.59;96902.25;231737;205;137452;-58
2023/12/21 12:33:55;;;;;;;1.90;0.80;;;;;;;8.23;60.69;96891.36;231860;198;138644;-57
2023/12/21 12:38:58;;;;;;;1.00;0.80;;;;;;;8.23;60.64;96876.48;231693;198;153385;-58
2023/12/21 12:44:02;;;;;;;3.40;0.90;;;;;;;8.21;60.56;96867.83;231753;206;137231;-55
2023/12/21 12:49:06;;;;;;;2.90;1.00;;;;;;;8.20;60.68;96852.38;231722;206;137721;-56
2023/12/21 12:54:10;;;;;;;1.30;0.80;;;;;;;8.20;60.91;96837.41;231728;205;153157;-54
2023/12/21 12:59:13;;;;;;;1.60;0.80;;;;;;;8.18;61.10;96823.79;231667;198;137555;-56
2023/12/21 13:04:16;;;;;;;30.80;24.50;;;;;;;8.15;61.61;96815.04;231793;198;138671;-54
2023/12/21 13:09:20;;;;;;;2.70;1.70;;;;;;;8.18;61.46;96802.13;231685;198;153171;-52
2023/12/21 13:14:23;;;;;;;1.90;1.10;;;;;;;8.15;61.28;96795.59;231645;199;139155;-60
2023/12/21 13:19:27;;;;;;;1.50;0.90;;;;;;;8.09;61.39;96789.94;231672;199;137501;-55
2023/12/21 13:24:31;;;;;;;1.40;0.90;;;;;;;7.98;62.01;96785.61;231593;199;153390;-56
2023/12/21 13:29:34;;;;;;;1.40;0.70;;;;;;;7.90;62.83;96776.11;231719;205;137873;-55
2023/12/21 13:34:39;;;;;;;1.60;0.90;;;;;;;7.81;63.49;96772.98;231834;199;138582;-54
2023/12/21 13:39:48;;;;;;;2.00;0.90;;;;;;;7.72;64.15;96762.36;231573;202;153183;-56
2023/12/21 13:44:52;;;;;;;1.50;0.90;;;;;;;7.64;64.77;96753.85;231556;199;138444;-55
2023/12/21 13:49:56;;;;;;;2.40;1.20;;;;;;;7.65;65.22;96738.55;231697;203;137923;-54
2023/12/21 13:54:59;;;;;;;1.70;1.00;;;;;;;7.66;65.29;96721.35;231649;202;154174;-53
2023/12/21 14:00:04;;;;;;;1.90;1.10;;;;;;;7.58;65.60;96703.88;231770;198;138628;-54
2023/12/21 14:05:13;;;;;;;1.10;0.70;;;;;;;7.52;65.91;96693.66;231670;202;139325;-54
2023/12/21 14:10:17;;;;;;;1.90;1.10;;;;;;;7.48;66.37;96680.64;231815;198;153362;-55
2023/12/21 14:15:20;;;;;;;38.40;26.40;;;;;;;7.42;66.84;96665.14;231647;198;137865;-55
2023/12/21 14:20:23;;;;;;;2.60;1.40;;;;;;;7.44;67.43;96654.71;231694;199;140560;-54
2023/12/21 14:25:26;;;;;;;1.90;1.00;;;;;;;7.39;67.57;96641.39;231618;206;153869;-56
2023/12/21 14:30:30;;;;;;;1.30;0.80;;;;;;;7.42;67.60;96626.14;231665;202;138696;-54
2023/12/21 14:35:33;;;;;;;2.00;1.00;;;;;;;7.47;67.51;96612.46;231757;198;141736;-53
2023/12/21 14:40:37;;;;;;;2.30;1.00;;;;;;;7.48;67.76;96595.09;231782;206;153128;-55
2023/12/21 14:45:40;;;;;;;1.90;0.90;;;;;;;7.45;67.74;96580.66;231759;198;137420;-54
2023/12/21 14:50:44;;;;;;;1.40;1.10;;;;;;;7.42;67.90;96568.23;231764;198;138151;-53
2023/12/21 14:55:48;;;;;;;3.40;1.00;;;;;;;7.35;68.24;96554.91;231740;202;154922;-55
2023/12/21 15:00:52;;;;;;;2.80;1.00;;;;;;;7.29;68.34;96530.41;231705;205;137487;-54
2023/12/21 15:05:55;;;;;;;1.40;1.00;;;;;;;7.26;68.64;96518.66;231811;198;138996;-54
2023/12/21 15:10:58;;;;;;;2.00;1.40;;;;;;;7.30;68.65;96503.10;231740;199;154219;-53
2023/12/21 15:16:01;;;;;;;1.70;1.10;;;;;;;7.34;68.45;96488.66;231540;198;137235;-52
2023/12/21 15:21:07;;;;;;;2.20;1.10;;;;;;;7.36;68.52;96473.34;231617;198;138174;-52
2023/12/21 15:26:11;;;;;;;1.50;1.00;;;;;;;7.28;68.69;96462.28;231597;199;154082;-54
2023/12/21 15:31:15;;;;;;;1.60;1.10;;;;;;;7.19;69.00;96447.17;231548;198;137358;-52
2023/12/21 15:36:19;;;;;;;2.90;1.80;;;;;;;7.15;69.69;96435.73;231560;199;137846;-52
2023/12/21 15:41:22;;;;;;;1.10;0.80;;;;;;;7.18;69.37;96425.58;231267;199;153412;-51
2023/12/21 15:46:26;;;;;;;2.20;1.40;;;;;;;7.24;69.35;96411.85;231005;204;137973;-55
2023/12/21 15:51:29;;;;;;;2.10;1.10;;;;;;;7.35;69.08;96396.77;231000;204;138187;-53
2023/12/21 15:56:32;;;;;;;4.40;1.50;;;;;;;7.44;68.89;96385.14;231503;198;153350;-53
2023/12/21 16:01:35;;;;;;;1.40;0.90;;;;;;;7.43;68.86;96368.80;231497;199;137535;-54
2023/12/21 16:06:39;;;;;;;1.90;1.30;;;;;;;7.39;68.84;96360.72;231495;202;138207;-54
2023/12/21 16:11:42;;;;;;;2.30;1.20;;;;;;;7.37;68.84;96341.02;229513;205;153285;-53
2023/12/21 16:16:45;;;;;;;2.60;1.10;;;;;;;7.33;68.88;96333.56;231588;202;137598;-55
2023/12/21 16:21:49;;;;;;;1.90;1.10;;;;;;;7.35;69.02;96317.17;231539;202;138254;-54
2023/12/21 16:26:53;;;;;;;1.60;1.10;;;;;;;7.38;69.02;96304.75;231414;198;153977;-53
2023/12/21 16:31:57;;;;;;;1.80;1.00;;;;;;;7.43;69.10;96295.42;231476;199;139149;-53
2023/12/21 16:37:00;;;;;;;1.60;1.10;;;;;;;7.43;69.04;96287.34;231368;200;140182;-54
2023/12/21 16:42:04;;;;;;;2.10;1.30;;;;;;;7.40;68.85;96277.95;231410;203;154196;-51
2023/12/21 16:47:07;;;;;;;2.10;1.00;;;;;;;7.37;69.08;96268.16;231481;198;137631;-56
2023/12/21 16:52:10;;;;;;;2.20;1.20;;;;;;;7.39;69.16;96249.47;231594;203;138077;-53
2023/12/21 16:57:14;;;;;;;2.20;1.30;;;;;;;7.47;68.95;96227.71;231335;198;154050;-51
2023/12/21 17:02:17;;;;;;;1.80;1.10;;;;;;;7.54;68.74;96208.81;231129;198;139322;-52
2023/12/21 17:07:20;;;;;;;21.60;16.70;;;;;;;7.65;68.58;96194.59;230917;198;138010;-54
2023/12/21 17:12:23;;;;;;;3.00;1.60;;;;;;;7.79;68.11;96182.45;230861;205;153922;-53
2023/12/21 17:17:40;;;;;;;2.60;1.50;;;;;;;7.80;67.70;96179.45;231684;199;138634;-55
2023/12/21 17:22:44;;;;;;;2.00;1.20;;;;;;;7.78;67.31;96175.48;231732;203;137849;-55
2023/12/21 17:27:48;;;;;;;2.10;1.30;;;;;;;7.79;67.29;96154.17;231646;198;153814;-54
2023/12/21 17:32:51;;;;;;;2.20;1.20;;;;;;;7.83;66.85;96141.09;231056;203;138685;-54
2023/12/21 17:37:55;;;;;;;1.90;0.90;;;;;;;7.86;66.73;96134.50;231609;198;137441;-53
2023/12/21 17:42:58;;;;;;;2.10;1.30;;;;;;;7.87;66.52;96122.56;231252;203;153369;-53
2023/12/21 17:48:02;;;;;;;1.30;0.90;;;;;;;7.88;66.57;96109.96;231083;203;137838;-53
2023/12/21 17:53:05;;;;;;;2.60;1.20;;;;;;;7.96;65.92;96110.21;231632;202;137810;-53
2023/12/21 17:58:08;;;;;;;2.80;1.10;;;;;;;8.00;65.59;96102.53;231689;199;154734;-53
2023/12/21 18:03:11;;;;;;;6.00;3.50;;;;;;;8.00;66.06;96096.55;231642;202;138718;-57
2023/12/21 18:08:17;;;;;;;2.90;1.40;;;;;;;8.02;65.32;96094.02;231584;200;139327;-55
2023/12/21 18:13:20;;;;;;;1.90;1.00;;;;;;;7.96;65.60;96071.55;231518;206;152935;-53
2023/12/21 18:18:23;;;;;;;2.40;1.20;;;;;;;7.91;65.76;96074.13;231634;203;138288;-55
2023/12/21 18:23:26;;;;;;;2.60;0.80;;;;;;;7.87;66.39;96068.86;231688;202;137799;-54
2023/12/21 18:28:29;;;;;;;2.30;1.20;;;;;;;7.83;67.00;96053.08;231546;202;153236;-55
2023/12/21 18:33:33;;;;;;;3.30;1.30;;;;;;;7.82;67.42;96040.78;231481;203;137996;-55
2023/12/21 18:38:36;;;;;;;2.20;1.20;;;;;;;7.80;67.77;96034.80;231687;203;137415;-55
2023/12/21 18:43:39;;;;;;;3.40;1.20;;;;;;;7.78;67.98;96029.87;231624;199;153788;-53
2023/12/21 18:48:44;;;;;;;3.00;1.70;;;;;;;7.79;68.30;96024.81;230925;206;138713;-53
2023/12/21 18:53:47;;;;;;;2.90;1.10;;;;;;;7.75;68.74;96027.35;231702;199;137655;-55
2023/12/21 18:58:50;;;;;;;24.70;15.80;;;;;;;7.71;70.16;96025.13;231687;199;153048;-55
2023/12/21 19:03:54;;;;;;;2.60;1.50;;;;;;;7.69;70.57;96014.70;231643;198;138451;-54
2023/12/21 19:08:57;;;;;;;3.30;1.40;;;;;;;7.62;70.72;95990.21;231704;206;137519;-53
2023/12/21 19:14:00;;;;;;;3.20;1.20;;;;;;;7.52;70.89;95968.27;231463;199;153814;-54
2023/12/21 19:19:03;;;;;;;2.50;1.40;;;;;;;7.46;71.22;95946.09;231635;199;137812;-54
2023/12/21 19:24:06;;;;;;;1.40;1.00;;;;;;;7.45;71.27;95940.59;231795;198;153055;-54
2023/12/21 19:29:10;;;;;;;1.80;1.00;;;;;;;7.46;71.04;95926.50;231363;202;154813;-54
2023/12/21 19:34:13;;;;;;;2.50;1.10;;;;;;;7.49;70.73;95934.18;231390;198;138691;-55
2023/12/21 19:39:17;;;;;;;2.50;1.30;;;;;;;7.53;70.33;95914.63;231599;205;138004;-54
2023/12/21 19:44:20;;;;;;;77.10;46.50;;;;;;;7.62;70.38;95892.66;231729;199;153292;-55
2023/12/21 19:49:24;;;;;;;3.60;2.50;;;;;;;7.82;69.78;95890.92;231421;206;138605;-54
2023/12/21 19:54:28;;;;;;;2.50;1.10;;;;;;;7.71;69.41;95886.77;231304;198;138656;-54
2023/12/21 19:59:31;;;;;;;2.50;1.00;;;;;;;7.60;69.57;95888.98;230969;198;154235;-52
2023/12/21 20:04:34;;;;;;;1.50;1.00;;;;;;;7.57;69.63;95882.20;231686;198;138385;-54
2023/12/21 20:09:37;;;;;;;1.60;1.00;;;;;;;7.61;69.60;95874.04;231690;198;138253;-54
2023/12/21 20:14:41;;;;;;;1.90;1.00;;;;;;;7.62;69.65;95861.80;231510;202;153467;-54
2023/12/21 20:19:44;;;;;;;3.00;1.30;;;;;;;7.56;69.65;95873.31;231316;198;138702;-53
2023/12/21 20:24:47;;;;;;;2.30;1.30;;;;;;;7.56;70.05;95879.98;231274;202;138758;-55
2023/12/21 20:29:50;;;;;;;1.90;1.10;;;;;;;7.58;70.16;95857.94;231554;205;154513;-54
2023/12/21 20:34:54;;;;;;;1.90;1.10;;;;;;;7.63;70.10;95854.44;231090;198;138887;-53
2023/12/21 20:39:57;;;;;;;1.40;0.90;;;;;;;7.75;70.00;95832.54;231573;199;138770;-53
2023/12/21 20:45:00;;;;;;;2.70;1.20;;;;;;;7.84;69.89;95825.11;231552;198;153862;-53
2023/12/21 20:50:05;;;;;;;3.80;1.50;;;;;;;7.94;69.67;95812.12;231459;198;138698;-54
2023/12/21 20:55:08;;;;;;;1.90;1.30;;;;;;;7.99;69.44;95811.23;231621;198;137948;-54
2023/12/21 21:00:12;;;;;;;2.20;1.10;;;;;;;7.96;69.42;95810.77;231629;198;153105;-56
2023/12/21 21:05:15;;;;;;;2.10;1.20;;;;;;;7.93;69.68;95817.98;231713;203;137497;-55
2023/12/21 21:10:19;;;;;;;85.30;55.40;;;;;;;7.92;70.28;95832.59;231123;198;138746;-55
2023/12/21 21:15:22;;;;;;;6.00;4.20;;;;;;;8.08;71.48;95840.98;231236;205;153501;-58
2023/12/21 21:20:25;;;;;;;2.50;1.60;;;;;;;8.19;71.02;95858.52;230874;199;139755;-53
2023/12/21 21:25:29;;;;;;;2.80;1.30;;;;;;;8.14;71.44;95868.48;231737;205;137485;-56
2023/12/21 21:30:32;;;;;;;3.10;2.20;;;;;;;8.05;72.52;95870.54;231594;205;154289;-54
2023/12/21 21:35:56;;;;;;;3.40;2.00;;;;;;;8.03;73.43;95883.20;230460;199;139110;-54
2023/12/21 21:41:00;;;;;;;204.10;138.80;;;;;;;7.98;73.78;95881.25;231356;206;138702;-55
2023/12/21 21:46:04;;;;;;;7.90;4.20;;;;;;;8.02;74.24;95879.88;231469;205;153232;-54
2023/12/21 21:51:10;;;;;;;4.00;2.00;;;;;;;7.98;74.14;95867.42;231467;198;138694;-55
2023/12/21 21:56:19;;;;;;;2.50;1.30;;;;;;;7.99;74.38;95835.88;231283;198;138035;-56
2023/12/21 22:01:23;;;;;;;2.30;1.30;;;;;;;7.94;74.36;95825.10;231655;198;154698;-53
2023/12/21 22:06:26;;;;;;;3.10;1.30;;;;;;;7.91;74.24;95812.34;231256;199;138464;-51
2023/12/21 22:11:30;;;;;;;3.10;1.40;;;;;;;7.88;73.88;95808.11;231392;198;137775;-56
2023/12/21 22:16:33;;;;;;;3.60;1.20;;;;;;;7.77;73.90;95816.27;231671;199;152908;-55
2023/12/21 22:21:37;;;;;;;1.90;1.10;;;;;;;7.66;74.25;95817.27;231615;198;138637;-56
2023/12/21 22:26:40;;;;;;;1.80;1.10;;;;;;;7.57;74.53;95835.73;231777;199;138781;-55
2023/12/21 22:31:44;;;;;;;2.10;1.00;;;;;;;7.57;74.60;95856.27;231429;198;153707;-55
2023/12/21 22:36:47;;;;;;;2.50;1.10;;;;;;;7.59;74.67;95861.02;231681;199;138107;-55
2023/12/21 22:41:50;;;;;;;1.90;1.20;;;;;;;7.58;74.80;95861.61;231617;198;138669;-54
2023/12/21 22:46:55;;;;;;;3.60;1.50;;;;;;;7.54;74.92;95866.41;231459;206;153923;-54
2023/12/21 22:51:59;;;;;;;2.90;1.40;;;;;;;7.55;74.84;95872.99;231601;202;138637;-55
2023/12/21 22:57:03;;;;;;;2.60;1.50;;;;;;;7.53;74.69;95883.86;231455;198;140420;-54
2023/12/21 23:02:06;;;;;;;3.90;1.40;;;;;;;7.52;73.97;95883.80;231701;203;153971;-54
2023/12/21 23:07:10;;;;;;;2.60;1.00;;;;;;;7.53;73.10;95885.42;231708;202;138566;-54
2023/12/21 23:12:15;;;;;;;6.80;1.80;;;;;;;7.51;72.86;95877.20;231130;198;138657;-51
2023/12/21 23:17:18;;;;;;;4.50;1.40;;;;;;;7.50;72.58;95897.02;231808;198;156321;-55
2023/12/21 23:22:22;;;;;;;6.80;2.00;;;;;;;7.52;71.86;95892.89;231454;202;141133;-54
2023/12/21 23:27:25;;;;;;;6.40;1.50;;;;;;;7.63;71.02;95888.86;231511;198;138688;-55
2023/12/21 23:32:28;;;;;;;5.60;1.50;;;;;;;7.69;70.92;95879.21;231599;206;153141;-53
2023/12/21 23:37:33;;;;;;;4.80;1.90;;;;;;;7.71;69.98;95892.40;231577;199;137654;-54
2023/12/21 23:42:39;;;;;;;4.10;1.70;;;;;;;7.65;69.31;95898.51;231490;206;138740;-52
2023/12/21 23:47:43;;;;;;;;;;;;;;;7.62;69.40;95903.71;231756;199;153407;-52
2023/12/21 23:52:46;;;;;;;5.20;1.50;;;;;;;7.58;69.58;95904.18;231348;206;138831;-49